Terminal Aerodrome Forecast
Issued by NWS Columbia, SC

Home | Current Version | Previous Version | Text Only | Print | Product List | Glossary On
Versions: 1 2 3 4 5 6 7 8 9 10 11 12 13 14 15 16 17 18 19 20 21 22 23 24 25 26 27 28 29 30 31 32 33 34 35
000
FTAK31 PAJN 261700
TAFAGS
TAF
PAGS 261736Z 2618/2718 14006KT P6SM VCSH BKN025 OVC035
     FM262200 VRB05KT P6SM -SHRA BKN015 OVC025
     FM270500 VRB04KT P6SM VCSH SCT020 OVC040
     FM271000 34005KT P6SM FEW005
      AMD LTD TO CLD VIS AND WIND=

USA.gov is the U.S. government's official web portal to all federal, state and local government web resources and services.